sensor_id;sensor_type;location;lat;lon;timestamp;P1;durP1;ratioP1;P2;durP2;ratioP2
50932;SDS011;36921;49.006;9.292;2022-09-09T00:00:37;1.95;;;0.70;;
50932;SDS011;36921;49.006;9.292;2022-09-09T00:03:19;5.32;;;1.00;;
50932;SDS011;36921;49.006;9.292;2022-09-09T00:06:26;2.88;;;0.88;;
50932;SDS011;36921;49.006;9.292;2022-09-09T00:09:16;5.83;;;0.80;;
50932;SDS011;36921;49.006;9.292;2022-09-09T00:12:01;4.05;;;0.70;;
50932;SDS011;36921;49.006;9.292;2022-09-09T00:14:51;4.18;;;0.77;;
50932;SDS011;36921;49.006;9.292;2022-09-09T00:17:39;2.33;;;0.80;;
50932;SDS011;36921;49.006;9.292;2022-09-09T00:20:28;3.22;;;0.85;;
50932;SDS011;36921;49.006;9.292;2022-09-09T00:25:52;2.72;;;0.68;;
50932;SDS011;36921;49.006;9.292;2022-09-09T00:28:24;2.30;;;0.90;;
50932;SDS011;36921;49.006;9.292;2022-09-09T00:30:52;4.43;;;1.08;;
50932;SDS011;36921;49.006;9.292;2022-09-09T00:33:22;3.03;;;0.63;;
50932;SDS011;36921;49.006;9.292;2022-09-09T00:35:58;3.08;;;0.75;;
50932;SDS011;36921;49.006;9.292;2022-09-09T00:38:33;4.85;;;0.70;;
50932;SDS011;36921;49.006;9.292;2022-09-09T00:41:06;2.47;;;0.75;;
50932;SDS011;36921;49.006;9.292;2022-09-09T00:43:40;2.30;;;0.82;;
50932;SDS011;36921;49.006;9.292;2022-09-09T00:57:40;2.58;;;0.63;;
50932;SDS011;36921;49.006;9.292;2022-09-09T01:00:17;2.75;;;0.85;;
50932;SDS011;36921;49.006;9.292;2022-09-09T01:08:42;2.13;;;0.65;;
50932;SDS011;36921;49.006;9.292;2022-09-09T01:11:45;2.92;;;0.80;;
50932;SDS011;36921;49.006;9.292;2022-09-09T01:14:35;3.03;;;0.77;;
50932;SDS011;36921;49.006;9.292;2022-09-09T01:17:26;5.70;;;0.85;;
50932;SDS011;36921;49.006;9.292;2022-09-09T01:22:36;1.70;;;0.60;;
50932;SDS011;36921;49.006;9.292;2022-09-09T01:25:25;4.28;;;1.63;;
50932;SDS011;36921;49.006;9.292;2022-09-09T01:27:58;2.38;;;0.65;;
50932;SDS011;36921;49.006;9.292;2022-09-09T01:30:27;4.50;;;0.82;;
50932;SDS011;36921;49.006;9.292;2022-09-09T01:32:55;3.50;;;0.60;;
50932;SDS011;36921;49.006;9.292;2022-09-09T01:38:31;4.20;;;0.85;;
50932;SDS011;36921;49.006;9.292;2022-09-09T01:40:59;2.03;;;0.70;;
50932;SDS011;36921;49.006;9.292;2022-09-09T01:43:25;3.42;;;0.63;;
50932;SDS011;36921;49.006;9.292;2022-09-09T01:45:56;4.07;;;0.82;;
50932;SDS011;36921;49.006;9.292;2022-09-09T01:48:25;3.03;;;0.80;;
50932;SDS011;36921;49.006;9.292;2022-09-09T01:50:51;3.35;;;0.50;;
50932;SDS011;36921;49.006;9.292;2022-09-09T01:53:17;1.35;;;0.60;;
50932;SDS011;36921;49.006;9.292;2022-09-09T01:55:46;1.52;;;0.90;;
50932;SDS011;36921;49.006;9.292;2022-09-09T02:04:02;2.30;;;0.60;;
50932;SDS011;36921;49.006;9.292;2022-09-09T02:06:35;3.13;;;0.50;;
50932;SDS011;36921;49.006;9.292;2022-09-09T02:09:04;2.58;;;0.60;;
50932;SDS011;36921;49.006;9.292;2022-09-09T02:11:31;4.45;;;1.02;;
50932;SDS011;36921;49.006;9.292;2022-09-09T02:14:01;5.40;;;0.70;;
50932;SDS011;36921;49.006;9.292;2022-09-09T02:19:18;4.30;;;0.60;;
50932;SDS011;36921;49.006;9.292;2022-09-09T02:21:50;1.73;;;0.90;;
50932;SDS011;36921;49.006;9.292;2022-09-09T02:24:19;3.17;;;0.55;;
50932;SDS011;36921;49.006;9.292;2022-09-09T02:26:46;3.70;;;0.60;;
50932;SDS011;36921;49.006;9.292;2022-09-09T02:29:16;10.75;;;0.82;;
50932;SDS011;36921;49.006;9.292;2022-09-09T02:31:45;1.48;;;0.88;;
50932;SDS011;36921;49.006;9.292;2022-09-09T02:34:14;5.68;;;1.05;;
50932;SDS011;36921;49.006;9.292;2022-09-09T02:36:45;3.40;;;0.70;;
50932;SDS011;36921;49.006;9.292;2022-09-09T02:39:12;0.95;;;0.70;;
50932;SDS011;36921;49.006;9.292;2022-09-09T02:41:40;3.83;;;0.98;;
50932;SDS011;36921;49.006;9.292;2022-09-09T02:44:13;3.95;;;1.10;;
50932;SDS011;36921;49.006;9.292;2022-09-09T02:49:10;6.78;;;0.90;;
50932;SDS011;36921;49.006;9.292;2022-09-09T02:54:32;4.80;;;0.90;;
50932;SDS011;36921;49.006;9.292;2022-09-09T02:59:33;7.30;;;1.30;;
50932;SDS011;36921;49.006;9.292;2022-09-09T03:01:59;3.17;;;0.80;;
50932;SDS011;36921;49.006;9.292;2022-09-09T03:04:24;4.03;;;1.00;;
50932;SDS011;36921;49.006;9.292;2022-09-09T03:06:50;4.90;;;0.90;;
50932;SDS011;36921;49.006;9.292;2022-09-09T03:09:15;6.70;;;0.90;;
50932;SDS011;36921;49.006;9.292;2022-09-09T03:11:41;2.08;;;0.93;;
50932;SDS011;36921;49.006;9.292;2022-09-09T03:14:06;3.30;;;1.10;;
50932;SDS011;36921;49.006;9.292;2022-09-09T03:16:31;2.90;;;1.00;;
50932;SDS011;36921;49.006;9.292;2022-09-09T03:18:59;2.60;;;1.08;;
50932;SDS011;36921;49.006;9.292;2022-09-09T03:21:25;1.98;;;0.90;;
50932;SDS011;36921;49.006;9.292;2022-09-09T03:23:50;3.92;;;0.90;;
50932;SDS011;36921;49.006;9.292;2022-09-09T03:26:16;3.58;;;1.00;;
50932;SDS011;36921;49.006;9.292;2022-09-09T03:28:42;1.90;;;0.80;;
50932;SDS011;36921;49.006;9.292;2022-09-09T03:31:07;1.17;;;0.50;;
50932;SDS011;36921;49.006;9.292;2022-09-09T03:33:35;1.60;;;0.60;;
50932;SDS011;36921;49.006;9.292;2022-09-09T03:36:02;3.15;;;0.95;;
50932;SDS011;36921;49.006;9.292;2022-09-09T03:38:27;6.47;;;0.90;;
50932;SDS011;36921;49.006;9.292;2022-09-09T03:40:54;4.32;;;0.90;;
50932;SDS011;36921;49.006;9.292;2022-09-09T03:43:28;5.35;;;0.90;;
50932;SDS011;36921;49.006;9.292;2022-09-09T03:45:55;3.92;;;1.05;;
50932;SDS011;36921;49.006;9.292;2022-09-09T03:48:23;6.25;;;1.10;;
50932;SDS011;36921;49.006;9.292;2022-09-09T03:50:51;2.90;;;0.90;;
50932;SDS011;36921;49.006;9.292;2022-09-09T03:53:19;2.45;;;0.63;;
50932;SDS011;36921;49.006;9.292;2022-09-09T03:55:46;5.18;;;1.10;;
50932;SDS011;36921;49.006;9.292;2022-09-09T03:58:13;5.85;;;1.08;;
50932;SDS011;36921;49.006;9.292;2022-09-09T04:00:40;2.33;;;0.90;;
50932;SDS011;36921;49.006;9.292;2022-09-09T04:03:08;5.95;;;1.23;;
50932;SDS011;36921;49.006;9.292;2022-09-09T04:08:07;1.35;;;0.73;;
50932;SDS011;36921;49.006;9.292;2022-09-09T04:10:33;5.60;;;0.77;;
50932;SDS011;36921;49.006;9.292;2022-09-09T04:13:01;2.03;;;0.75;;
50932;SDS011;36921;49.006;9.292;2022-09-09T04:15:27;3.83;;;0.90;;
50932;SDS011;36921;49.006;9.292;2022-09-09T04:17:53;2.20;;;0.85;;
50932;SDS011;36921;49.006;9.292;2022-09-09T04:20:18;3.25;;;1.00;;
50932;SDS011;36921;49.006;9.292;2022-09-09T04:22:44;6.75;;;1.20;;
50932;SDS011;36921;49.006;9.292;2022-09-09T04:25:10;5.07;;;0.88;;
50932;SDS011;36921;49.006;9.292;2022-09-09T04:27:35;3.33;;;0.85;;
50932;SDS011;36921;49.006;9.292;2022-09-09T04:30:00;6.55;;;1.20;;
50932;SDS011;36921;49.006;9.292;2022-09-09T04:32:26;1.85;;;0.85;;
50932;SDS011;36921;49.006;9.292;2022-09-09T04:34:52;2.47;;;0.80;;
50932;SDS011;36921;49.006;9.292;2022-09-09T04:37:17;2.85;;;0.95;;
50932;SDS011;36921;49.006;9.292;2022-09-09T04:39:43;4.93;;;0.90;;
50932;SDS011;36921;49.006;9.292;2022-09-09T04:42:08;3.70;;;1.00;;
50932;SDS011;36921;49.006;9.292;2022-09-09T04:44:34;3.28;;;0.98;;
50932;SDS011;36921;49.006;9.292;2022-09-09T04:46:59;2.70;;;1.00;;
50932;SDS011;36921;49.006;9.292;2022-09-09T04:49:24;2.58;;;0.90;;
50932;SDS011;36921;49.006;9.292;2022-09-09T04:51:50;2.15;;;0.75;;
50932;SDS011;36921;49.006;9.292;2022-09-09T04:54:17;1.98;;;1.05;;
50932;SDS011;36921;49.006;9.292;2022-09-09T04:56:42;4.00;;;0.90;;
50932;SDS011;36921;49.006;9.292;2022-09-09T04:59:08;6.93;;;0.95;;
50932;SDS011;36921;49.006;9.292;2022-09-09T05:01:35;4.75;;;0.98;;
50932;SDS011;36921;49.006;9.292;2022-09-09T05:04:01;3.22;;;0.95;;
50932;SDS011;36921;49.006;9.292;2022-09-09T05:06:27;7.75;;;0.85;;
50932;SDS011;36921;49.006;9.292;2022-09-09T05:08:55;5.05;;;1.00;;
50932;SDS011;36921;49.006;9.292;2022-09-09T05:13:52;2.88;;;0.98;;
50932;SDS011;36921;49.006;9.292;2022-09-09T05:16:18;4.30;;;1.42;;
50932;SDS011;36921;49.006;9.292;2022-09-09T05:18:45;3.03;;;1.05;;
50932;SDS011;36921;49.006;9.292;2022-09-09T05:21:11;3.38;;;0.98;;
50932;SDS011;36921;49.006;9.292;2022-09-09T05:23:38;5.95;;;1.27;;
50932;SDS011;36921;49.006;9.292;2022-09-09T05:26:04;6.80;;;1.40;;
50932;SDS011;36921;49.006;9.292;2022-09-09T05:28:33;2.97;;;0.90;;
50932;SDS011;36921;49.006;9.292;2022-09-09T05:31:01;4.05;;;0.90;;
50932;SDS011;36921;49.006;9.292;2022-09-09T05:33:29;1.00;;;0.85;;
50932;SDS011;36921;49.006;9.292;2022-09-09T05:36:03;4.10;;;1.15;;
50932;SDS011;36921;49.006;9.292;2022-09-09T05:38:30;7.35;;;1.05;;
50932;SDS011;36921;49.006;9.292;2022-09-09T05:40:58;2.50;;;0.98;;
50932;SDS011;36921;49.006;9.292;2022-09-09T05:43:24;2.20;;;0.93;;
50932;SDS011;36921;49.006;9.292;2022-09-09T05:48:48;4.03;;;1.20;;
50932;SDS011;36921;49.006;9.292;2022-09-09T05:51:20;1.25;;;0.55;;
50932;SDS011;36921;49.006;9.292;2022-09-09T05:53:47;2.58;;;0.80;;
50932;SDS011;36921;49.006;9.292;2022-09-09T05:56:14;3.28;;;0.77;;
50932;SDS011;36921;49.006;9.292;2022-09-09T05:58:44;3.65;;;0.70;;
50932;SDS011;36921;49.006;9.292;2022-09-09T06:01:13;2.10;;;0.60;;
50932;SDS011;36921;49.006;9.292;2022-09-09T06:03:40;4.70;;;0.80;;
50932;SDS011;36921;49.006;9.292;2022-09-09T06:06:08;2.75;;;0.60;;
50932;SDS011;36921;49.006;9.292;2022-09-09T06:08:36;3.25;;;0.90;;
50932;SDS011;36921;49.006;9.292;2022-09-09T06:13:31;3.83;;;1.00;;
50932;SDS011;36921;49.006;9.292;2022-09-09T06:15:57;8.95;;;1.80;;
50932;SDS011;36921;49.006;9.292;2022-09-09T06:18:23;5.55;;;0.90;;
50932;SDS011;36921;49.006;9.292;2022-09-09T06:20:56;2.38;;;0.77;;
50932;SDS011;36921;49.006;9.292;2022-09-09T06:23:23;4.40;;;1.30;;
50932;SDS011;36921;49.006;9.292;2022-09-09T06:25:49;3.78;;;0.80;;
50932;SDS011;36921;49.006;9.292;2022-09-09T06:28:15;3.65;;;0.70;;
50932;SDS011;36921;49.006;9.292;2022-09-09T06:30:41;5.38;;;0.80;;
50932;SDS011;36921;49.006;9.292;2022-09-09T06:33:06;2.58;;;0.77;;
50932;SDS011;36921;49.006;9.292;2022-09-09T06:35:32;5.07;;;1.25;;
50932;SDS011;36921;49.006;9.292;2022-09-09T06:37:57;1.83;;;0.93;;
50932;SDS011;36921;49.006;9.292;2022-09-09T06:40:23;8.68;;;1.00;;
50932;SDS011;36921;49.006;9.292;2022-09-09T06:42:49;2.85;;;0.70;;
50932;SDS011;36921;49.006;9.292;2022-09-09T06:45:15;4.15;;;1.02;;
50932;SDS011;36921;49.006;9.292;2022-09-09T06:47:40;4.90;;;1.10;;
50932;SDS011;36921;49.006;9.292;2022-09-09T06:50:07;3.70;;;0.90;;
50932;SDS011;36921;49.006;9.292;2022-09-09T06:52:36;3.28;;;1.08;;
50932;SDS011;36921;49.006;9.292;2022-09-09T06:55:01;1.27;;;0.70;;
50932;SDS011;36921;49.006;9.292;2022-09-09T06:57:27;2.72;;;0.70;;
50932;SDS011;36921;49.006;9.292;2022-09-09T06:59:53;4.60;;;0.73;;
50932;SDS011;36921;49.006;9.292;2022-09-09T07:02:18;2.65;;;1.10;;
50932;SDS011;36921;49.006;9.292;2022-09-09T07:04:43;1.90;;;0.60;;
50932;SDS011;36921;49.006;9.292;2022-09-09T07:07:09;4.18;;;0.73;;
50932;SDS011;36921;49.006;9.292;2022-09-09T07:09:37;6.50;;;1.35;;
50932;SDS011;36921;49.006;9.292;2022-09-09T07:12:02;6.13;;;0.90;;
50932;SDS011;36921;49.006;9.292;2022-09-09T07:14:30;2.28;;;1.13;;
50932;SDS011;36921;49.006;9.292;2022-09-09T07:16:56;2.83;;;0.70;;
50932;SDS011;36921;49.006;9.292;2022-09-09T07:19:22;2.00;;;0.80;;
50932;SDS011;36921;49.006;9.292;2022-09-09T07:21:47;1.90;;;0.73;;
50932;SDS011;36921;49.006;9.292;2022-09-09T07:24:13;7.38;;;1.40;;
50932;SDS011;36921;49.006;9.292;2022-09-09T07:26:39;2.95;;;0.70;;
50932;SDS011;36921;49.006;9.292;2022-09-09T07:29:05;3.85;;;1.13;;
50932;SDS011;36921;49.006;9.292;2022-09-09T07:31:35;3.60;;;0.80;;
50932;SDS011;36921;49.006;9.292;2022-09-09T07:34:03;8.50;;;0.77;;
50932;SDS011;36921;49.006;9.292;2022-09-09T07:36:30;1.52;;;0.57;;
50932;SDS011;36921;49.006;9.292;2022-09-09T07:39:01;5.07;;;0.90;;
50932;SDS011;36921;49.006;9.292;2022-09-09T07:41:30;2.20;;;0.80;;
50932;SDS011;36921;49.006;9.292;2022-09-09T07:43:59;5.72;;;1.00;;
50932;SDS011;36921;49.006;9.292;2022-09-09T07:46:25;4.25;;;0.75;;
50932;SDS011;36921;49.006;9.292;2022-09-09T07:48:52;1.27;;;0.55;;
50932;SDS011;36921;49.006;9.292;2022-09-09T07:51:21;6.57;;;0.80;;
50932;SDS011;36921;49.006;9.292;2022-09-09T07:53:52;5.00;;;1.00;;
50932;SDS011;36921;49.006;9.292;2022-09-09T07:56:19;4.37;;;0.77;;
50932;SDS011;36921;49.006;9.292;2022-09-09T07:58:48;6.95;;;0.90;;
50932;SDS011;36921;49.006;9.292;2022-09-09T08:01:15;3.08;;;0.68;;
50932;SDS011;36921;49.006;9.292;2022-09-09T08:06:09;5.93;;;0.57;;
50932;SDS011;36921;49.006;9.292;2022-09-09T08:08:36;5.95;;;0.80;;
50932;SDS011;36921;49.006;9.292;2022-09-09T08:11:09;2.78;;;0.43;;
50932;SDS011;36921;49.006;9.292;2022-09-09T08:13:40;4.05;;;0.73;;
50932;SDS011;36921;49.006;9.292;2022-09-09T08:16:08;3.90;;;0.80;;
50932;SDS011;36921;49.006;9.292;2022-09-09T08:18:40;2.83;;;0.70;;
50932;SDS011;36921;49.006;9.292;2022-09-09T08:21:07;2.38;;;0.45;;
50932;SDS011;36921;49.006;9.292;2022-09-09T08:23:36;3.65;;;0.65;;
50932;SDS011;36921;49.006;9.292;2022-09-09T08:26:05;3.77;;;0.70;;
50932;SDS011;36921;49.006;9.292;2022-09-09T08:28:33;3.83;;;0.85;;
50932;SDS011;36921;49.006;9.292;2022-09-09T08:31:06;7.55;;;0.70;;
50932;SDS011;36921;49.006;9.292;2022-09-09T08:33:36;2.80;;;0.45;;
50932;SDS011;36921;49.006;9.292;2022-09-09T08:38:55;2.42;;;0.50;;
50932;SDS011;36921;49.006;9.292;2022-09-09T08:58:13;4.30;;;0.77;;
50932;SDS011;36921;49.006;9.292;2022-09-09T09:03:50;1.95;;;0.47;;
50932;SDS011;36921;49.006;9.292;2022-09-09T09:09:04;3.70;;;0.88;;
50932;SDS011;36921;49.006;9.292;2022-09-09T09:11:41;5.80;;;0.93;;
50932;SDS011;36921;49.006;9.292;2022-09-09T09:14:20;2.75;;;0.70;;
50932;SDS011;36921;49.006;9.292;2022-09-09T09:16:58;6.22;;;0.80;;
50932;SDS011;36921;49.006;9.292;2022-09-09T09:19:26;3.42;;;0.57;;
50932;SDS011;36921;49.006;9.292;2022-09-09T09:27:14;1.95;;;0.50;;
50932;SDS011;36921;49.006;9.292;2022-09-09T09:29:45;2.25;;;0.57;;
50932;SDS011;36921;49.006;9.292;2022-09-09T09:32:15;3.28;;;0.55;;
50932;SDS011;36921;49.006;9.292;2022-09-09T09:34:48;3.22;;;0.60;;
50932;SDS011;36921;49.006;9.292;2022-09-09T09:37:17;2.63;;;0.52;;
50932;SDS011;36921;49.006;9.292;2022-09-09T09:39:48;5.63;;;0.88;;
50932;SDS011;36921;49.006;9.292;2022-09-09T09:42:16;2.22;;;0.52;;
50932;SDS011;36921;49.006;9.292;2022-09-09T09:44:42;4.67;;;0.50;;
50932;SDS011;36921;49.006;9.292;2022-09-09T09:47:19;4.95;;;0.80;;
50932;SDS011;36921;49.006;9.292;2022-09-09T09:49:53;3.28;;;0.55;;
50932;SDS011;36921;49.006;9.292;2022-09-09T09:52:24;4.78;;;0.40;;
50932;SDS011;36921;49.006;9.292;2022-09-09T09:54:51;2.80;;;0.60;;
50932;SDS011;36921;49.006;9.292;2022-09-09T09:57:18;1.67;;;0.40;;
50932;SDS011;36921;49.006;9.292;2022-09-09T10:02:42;3.33;;;0.40;;
50932;SDS011;36921;49.006;9.292;2022-09-09T10:07:43;3.10;;;0.30;;
50932;SDS011;36921;49.006;9.292;2022-09-09T10:10:20;3.67;;;0.60;;
50932;SDS011;36921;49.006;9.292;2022-09-09T10:20:45;3.05;;;0.40;;
50932;SDS011;36921;49.006;9.292;2022-09-09T10:26:01;2.75;;;0.52;;
50932;SDS011;36921;49.006;9.292;2022-09-09T10:31:42;2.85;;;0.40;;
50932;SDS011;36921;49.006;9.292;2022-09-09T10:36:52;2.22;;;0.50;;
50932;SDS011;36921;49.006;9.292;2022-09-09T10:39:37;4.10;;;0.60;;
50932;SDS011;36921;49.006;9.292;2022-09-09T10:42:14;4.22;;;0.40;;
50932;SDS011;36921;49.006;9.292;2022-09-09T10:47:34;3.40;;;0.98;;
50932;SDS011;36921;49.006;9.292;2022-09-09T10:52:55;2.97;;;0.50;;
50932;SDS011;36921;49.006;9.292;2022-09-09T10:55:51;4.95;;;0.40;;
50932;SDS011;36921;49.006;9.292;2022-09-09T10:58:23;3.30;;;0.40;;
50932;SDS011;36921;49.006;9.292;2022-09-09T11:00:57;2.55;;;0.30;;
50932;SDS011;36921;49.006;9.292;2022-09-09T11:03:32;2.05;;;0.38;;
50932;SDS011;36921;49.006;9.292;2022-09-09T11:06:06;6.55;;;0.65;;
50932;SDS011;36921;49.006;9.292;2022-09-09T11:08:38;2.05;;;0.40;;
50932;SDS011;36921;49.006;9.292;2022-09-09T11:16:41;2.63;;;0.40;;
50932;SDS011;36921;49.006;9.292;2022-09-09T11:19:16;3.97;;;0.63;;
50932;SDS011;36921;49.006;9.292;2022-09-09T11:21:53;3.60;;;0.50;;
50932;SDS011;36921;49.006;9.292;2022-09-09T11:27:02;3.55;;;0.65;;
50932;SDS011;36921;49.006;9.292;2022-09-09T11:29:51;2.83;;;0.60;;
50932;SDS011;36921;49.006;9.292;2022-09-09T11:40:57;1.23;;;0.43;;
50932;SDS011;36921;49.006;9.292;2022-09-09T11:43:32;1.38;;;0.52;;
50932;SDS011;36921;49.006;9.292;2022-09-09T11:46:03;1.77;;;0.40;;
50932;SDS011;36921;49.006;9.292;2022-09-09T11:48:42;1.85;;;0.43;;
50932;SDS011;36921;49.006;9.292;2022-09-09T11:51:29;1.40;;;0.28;;
50932;SDS011;36921;49.006;9.292;2022-09-09T11:56:48;0.55;;;0.20;;
50932;SDS011;36921;49.006;9.292;2022-09-09T11:59:24;3.58;;;0.25;;
50932;SDS011;36921;49.006;9.292;2022-09-09T12:01:56;2.10;;;0.60;;
50932;SDS011;36921;49.006;9.292;2022-09-09T12:06:54;2.15;;;0.30;;
50932;SDS011;36921;49.006;9.292;2022-09-09T12:11:52;1.65;;;0.22;;
50932;SDS011;36921;49.006;9.292;2022-09-09T12:14:22;0.98;;;0.30;;
50932;SDS011;36921;49.006;9.292;2022-09-09T12:17:07;3.00;;;0.40;;
50932;SDS011;36921;49.006;9.292;2022-09-09T12:19:34;2.58;;;0.22;;
50932;SDS011;36921;49.006;9.292;2022-09-09T12:22:06;0.47;;;0.20;;
50932;SDS011;36921;49.006;9.292;2022-09-09T12:27:46;0.68;;;0.10;;
50932;SDS011;36921;49.006;9.292;2022-09-09T12:30:16;2.35;;;0.20;;
50932;SDS011;36921;49.006;9.292;2022-09-09T12:32:44;1.52;;;0.20;;
50932;SDS011;36921;49.006;9.292;2022-09-09T12:35:18;0.68;;;0.30;;
50932;SDS011;36921;49.006;9.292;2022-09-09T12:37:51;1.20;;;0.30;;
50932;SDS011;36921;49.006;9.292;2022-09-09T12:42:57;1.45;;;0.20;;
50932;SDS011;36921;49.006;9.292;2022-09-09T12:45:26;2.53;;;0.20;;
50932;SDS011;36921;49.006;9.292;2022-09-09T12:48:04;1.23;;;0.15;;
50932;SDS011;36921;49.006;9.292;2022-09-09T12:50:37;0.50;;;0.20;;
50932;SDS011;36921;49.006;9.292;2022-09-09T12:53:10;1.35;;;0.20;;
50932;SDS011;36921;49.006;9.292;2022-09-09T12:55:56;1.55;;;0.15;;
50932;SDS011;36921;49.006;9.292;2022-09-09T12:58:23;3.08;;;0.10;;
50932;SDS011;36921;49.006;9.292;2022-09-09T13:00:53;1.35;;;0.20;;
50932;SDS011;36921;49.006;9.292;2022-09-09T13:03:24;1.75;;;0.20;;
50932;SDS011;36921;49.006;9.292;2022-09-09T13:05:51;0.77;;;0.22;;
50932;SDS011;36921;49.006;9.292;2022-09-09T13:08:18;0.57;;;0.10;;
50932;SDS011;36921;49.006;9.292;2022-09-09T13:13:38;2.08;;;0.30;;
50932;SDS011;36921;49.006;9.292;2022-09-09T13:16:06;0.93;;;0.20;;
50932;SDS011;36921;49.006;9.292;2022-09-09T13:18:43;2.08;;;0.30;;
50932;SDS011;36921;49.006;9.292;2022-09-09T13:21:08;1.33;;;0.40;;
50932;SDS011;36921;49.006;9.292;2022-09-09T13:23:35;1.30;;;0.28;;
50932;SDS011;36921;49.006;9.292;2022-09-09T13:28:33;2.75;;;0.30;;
50932;SDS011;36921;49.006;9.292;2022-09-09T13:31:00;1.75;;;0.40;;
50932;SDS011;36921;49.006;9.292;2022-09-09T13:33:29;4.22;;;0.32;;
50932;SDS011;36921;49.006;9.292;2022-09-09T13:35:59;1.45;;;0.20;;
50932;SDS011;36921;49.006;9.292;2022-09-09T13:38:31;1.15;;;0.30;;
50932;SDS011;36921;49.006;9.292;2022-09-09T13:43:42;2.90;;;0.30;;
50932;SDS011;36921;49.006;9.292;2022-09-09T13:49:00;2.03;;;0.38;;
50932;SDS011;36921;49.006;9.292;2022-09-09T13:51:46;1.55;;;0.30;;
50932;SDS011;36921;49.006;9.292;2022-09-09T13:54:14;0.43;;;0.28;;
50932;SDS011;36921;49.006;9.292;2022-09-09T13:56:41;2.53;;;0.28;;
50932;SDS011;36921;49.006;9.292;2022-09-09T13:59:12;1.13;;;0.20;;
50932;SDS011;36921;49.006;9.292;2022-09-09T14:01:44;1.40;;;0.25;;
50932;SDS011;36921;49.006;9.292;2022-09-09T14:04:10;1.08;;;0.28;;
50932;SDS011;36921;49.006;9.292;2022-09-09T14:06:40;5.93;;;0.43;;
50932;SDS011;36921;49.006;9.292;2022-09-09T14:09:10;3.25;;;0.20;;
50932;SDS011;36921;49.006;9.292;2022-09-09T14:11:37;1.77;;;0.30;;
50932;SDS011;36921;49.006;9.292;2022-09-09T14:14:03;3.00;;;0.50;;
50932;SDS011;36921;49.006;9.292;2022-09-09T14:16:29;3.47;;;0.28;;
50932;SDS011;36921;49.006;9.292;2022-09-09T14:18:54;0.45;;;0.20;;
50932;SDS011;36921;49.006;9.292;2022-09-09T14:21:21;3.00;;;0.38;;
50932;SDS011;36921;49.006;9.292;2022-09-09T14:23:47;2.78;;;0.28;;
50932;SDS011;36921;49.006;9.292;2022-09-09T14:26:13;2.90;;;0.40;;
50932;SDS011;36921;49.006;9.292;2022-09-09T14:28:39;2.45;;;0.30;;
50932;SDS011;36921;49.006;9.292;2022-09-09T14:31:05;1.30;;;0.30;;
50932;SDS011;36921;49.006;9.292;2022-09-09T14:33:31;0.73;;;0.10;;
50932;SDS011;36921;49.006;9.292;2022-09-09T14:36:00;1.88;;;0.40;;
50932;SDS011;36921;49.006;9.292;2022-09-09T14:38:32;1.08;;;0.20;;
50932;SDS011;36921;49.006;9.292;2022-09-09T14:41:00;2.17;;;0.20;;
50932;SDS011;36921;49.006;9.292;2022-09-09T14:43:28;4.30;;;0.40;;
50932;SDS011;36921;49.006;9.292;2022-09-09T14:45:55;1.27;;;0.20;;
50932;SDS011;36921;49.006;9.292;2022-09-09T14:48:20;1.50;;;0.38;;
50932;SDS011;36921;49.006;9.292;2022-09-09T14:50:46;2.70;;;0.28;;
50932;SDS011;36921;49.006;9.292;2022-09-09T14:53:11;2.78;;;0.25;;
50932;SDS011;36921;49.006;9.292;2022-09-09T14:55:37;2.00;;;0.35;;
50932;SDS011;36921;49.006;9.292;2022-09-09T14:58:04;2.55;;;0.30;;
50932;SDS011;36921;49.006;9.292;2022-09-09T15:00:31;1.90;;;0.30;;
50932;SDS011;36921;49.006;9.292;2022-09-09T15:02:56;2.40;;;0.20;;
50932;SDS011;36921;49.006;9.292;2022-09-09T15:05:22;3.70;;;0.30;;
50932;SDS011;36921;49.006;9.292;2022-09-09T15:07:48;1.88;;;0.40;;
50932;SDS011;36921;49.006;9.292;2022-09-09T15:10:13;1.25;;;0.20;;
50932;SDS011;36921;49.006;9.292;2022-09-09T15:12:39;1.63;;;0.20;;
50932;SDS011;36921;49.006;9.292;2022-09-09T15:15:07;3.35;;;0.50;;
50932;SDS011;36921;49.006;9.292;2022-09-09T15:17:32;3.85;;;0.40;;
50932;SDS011;36921;49.006;9.292;2022-09-09T15:19:58;4.78;;;0.60;;
50932;SDS011;36921;49.006;9.292;2022-09-09T15:22:23;3.88;;;0.30;;
50932;SDS011;36921;49.006;9.292;2022-09-09T15:24:49;1.92;;;0.38;;
50932;SDS011;36921;49.006;9.292;2022-09-09T15:27:15;4.03;;;0.30;;
50932;SDS011;36921;49.006;9.292;2022-09-09T15:29:41;1.35;;;0.30;;
50932;SDS011;36921;49.006;9.292;2022-09-09T15:32:07;1.02;;;0.10;;
50932;SDS011;36921;49.006;9.292;2022-09-09T15:34:33;2.22;;;0.30;;
50932;SDS011;36921;49.006;9.292;2022-09-09T15:36:58;0.63;;;0.20;;
50932;SDS011;36921;49.006;9.292;2022-09-09T15:39:25;0.82;;;0.20;;
50932;SDS011;36921;49.006;9.292;2022-09-09T15:41:51;1.60;;;0.40;;
50932;SDS011;36921;49.006;9.292;2022-09-09T15:44:17;3.38;;;0.22;;
50932;SDS011;36921;49.006;9.292;2022-09-09T15:46:48;0.95;;;0.20;;
50932;SDS011;36921;49.006;9.292;2022-09-09T15:49:17;1.70;;;0.28;;
50932;SDS011;36921;49.006;9.292;2022-09-09T15:51:57;1.17;;;0.30;;
50932;SDS011;36921;49.006;9.292;2022-09-09T15:54:24;2.38;;;0.20;;
50932;SDS011;36921;49.006;9.292;2022-09-09T15:56:52;1.02;;;0.20;;
50932;SDS011;36921;49.006;9.292;2022-09-09T15:59:20;0.77;;;0.22;;
50932;SDS011;36921;49.006;9.292;2022-09-09T16:01:46;1.58;;;0.30;;
50932;SDS011;36921;49.006;9.292;2022-09-09T16:04:12;7.72;;;1.02;;
50932;SDS011;36921;49.006;9.292;2022-09-09T16:06:37;1.70;;;0.30;;
50932;SDS011;36921;49.006;9.292;2022-09-09T16:09:04;1.35;;;0.20;;
50932;SDS011;36921;49.006;9.292;2022-09-09T16:11:31;1.83;;;0.28;;
50932;SDS011;36921;49.006;9.292;2022-09-09T16:13:59;2.65;;;0.15;;
50932;SDS011;36921;49.006;9.292;2022-09-09T16:16:26;0.30;;;0.10;;
50932;SDS011;36921;49.006;9.292;2022-09-09T16:18:54;0.45;;;0.10;;
50932;SDS011;36921;49.006;9.292;2022-09-09T16:23:46;3.33;;;0.22;;
50932;SDS011;36921;49.006;9.292;2022-09-09T16:26:13;3.25;;;0.20;;
50932;SDS011;36921;49.006;9.292;2022-09-09T16:28:41;3.45;;;0.30;;
50932;SDS011;36921;49.006;9.292;2022-09-09T16:31:07;1.42;;;0.30;;
50932;SDS011;36921;49.006;9.292;2022-09-09T16:33:35;4.03;;;0.50;;
50932;SDS011;36921;49.006;9.292;2022-09-09T16:36:08;1.92;;;0.47;;
50932;SDS011;36921;49.006;9.292;2022-09-09T16:38:35;5.28;;;0.50;;
50932;SDS011;36921;49.006;9.292;2022-09-09T16:41:02;3.70;;;0.75;;
50932;SDS011;36921;49.006;9.292;2022-09-09T16:43:32;3.00;;;0.50;;
50932;SDS011;36921;49.006;9.292;2022-09-09T16:45:58;0.88;;;0.20;;
50932;SDS011;36921;49.006;9.292;2022-09-09T16:48:26;2.63;;;0.30;;
50932;SDS011;36921;49.006;9.292;2022-09-09T16:51:02;1.15;;;0.20;;
50932;SDS011;36921;49.006;9.292;2022-09-09T16:53:29;0.50;;;0.15;;
50932;SDS011;36921;49.006;9.292;2022-09-09T16:55:55;0.35;;;0.10;;
50932;SDS011;36921;49.006;9.292;2022-09-09T16:58:20;1.88;;;0.35;;
50932;SDS011;36921;49.006;9.292;2022-09-09T17:00:46;3.20;;;0.10;;
50932;SDS011;36921;49.006;9.292;2022-09-09T17:03:13;0.30;;;0.00;;
50932;SDS011;36921;49.006;9.292;2022-09-09T17:05:41;0.10;;;0.00;;
50932;SDS011;36921;49.006;9.292;2022-09-09T17:08:06;0.30;;;0.10;;
50932;SDS011;36921;49.006;9.292;2022-09-09T17:10:32;1.30;;;0.17;;
50932;SDS011;36921;49.006;9.292;2022-09-09T17:12:57;0.40;;;0.05;;
50932;SDS011;36921;49.006;9.292;2022-09-09T17:15:23;1.60;;;0.10;;
50932;SDS011;36921;49.006;9.292;2022-09-09T17:17:48;1.95;;;0.10;;
50932;SDS011;36921;49.006;9.292;2022-09-09T17:20:18;0.95;;;0.15;;
50932;SDS011;36921;49.006;9.292;2022-09-09T17:22:44;1.02;;;0.20;;
50932;SDS011;36921;49.006;9.292;2022-09-09T17:25:10;2.15;;;0.20;;
50932;SDS011;36921;49.006;9.292;2022-09-09T17:27:36;4.72;;;0.40;;
50932;SDS011;36921;49.006;9.292;2022-09-09T17:30:01;0.88;;;0.10;;
50932;SDS011;36921;49.006;9.292;2022-09-09T17:37:22;1.08;;;0.10;;
50932;SDS011;36921;49.006;9.292;2022-09-09T17:39:47;1.00;;;0.28;;
50932;SDS011;36921;49.006;9.292;2022-09-09T17:44:54;2.80;;;0.28;;